createdAt,value
2022-09-14T00:00:04.139Z,17.57
2022-09-14T00:01:24.221Z,17.58
2022-09-14T00:02:05.546Z,17.57
2022-09-14T00:03:04.665Z,17.58
2022-09-14T00:04:04.686Z,17.57
2022-09-14T00:05:04.819Z,17.57
2022-09-14T00:06:04.955Z,17.58
2022-09-14T00:07:05.080Z,17.57
2022-09-14T00:08:05.208Z,17.57
2022-09-14T00:09:06.844Z,17.57
2022-09-14T00:10:05.494Z,17.57
2022-09-14T00:11:05.634Z,17.57
2022-09-14T00:12:05.776Z,17.57
2022-09-14T00:13:05.915Z,17.54
2022-09-14T00:14:06.048Z,17.54
2022-09-14T00:15:06.183Z,17.54
2022-09-14T00:16:06.380Z,17.53
2022-09-14T00:17:06.522Z,17.53
2022-09-14T00:18:06.595Z,17.53
2022-09-14T00:19:06.731Z,17.51
2022-09-14T00:20:06.850Z,17.51
2022-09-14T00:21:06.990Z,17.47
2022-09-14T00:22:07.127Z,17.47
2022-09-14T00:23:07.275Z,17.51
2022-09-14T00:24:07.491Z,17.51
2022-09-14T00:25:08.217Z,17.49
2022-09-14T00:26:07.607Z,17.49
2022-09-14T00:27:07.703Z,17.49
2022-09-14T00:28:07.837Z,17.47
2022-09-14T00:29:07.969Z,17.49
2022-09-14T00:30:08.101Z,17.47
2022-09-14T00:31:08.226Z,17.46
2022-09-14T00:32:08.402Z,17.49
2022-09-14T00:33:08.484Z,17.49
2022-09-14T00:34:08.565Z,17.45
2022-09-14T00:35:08.746Z,17.43
2022-09-14T00:36:08.818Z,17.43
2022-09-14T00:37:08.953Z,17.43
2022-09-14T00:38:09.087Z,17.42
2022-09-14T00:39:09.230Z,17.42
2022-09-14T00:40:09.489Z,17.42
2022-09-14T00:41:09.525Z,17.43
2022-09-14T00:42:09.648Z,17.42
2022-09-14T00:43:09.799Z,17.42
2022-09-14T00:44:09.886Z,17.42
2022-09-14T00:45:10.054Z,17.43
2022-09-14T00:46:10.190Z,17.43
2022-09-14T00:47:10.247Z,17.42
2022-09-14T00:48:10.393Z,17.38
2022-09-14T00:49:10.495Z,17.38
2022-09-14T00:50:10.627Z,17.38
2022-09-14T00:51:10.755Z,17.38
2022-09-14T00:52:10.875Z,17.38
2022-09-14T00:53:11.014Z,17.38
2022-09-14T00:54:11.106Z,17.35
2022-09-14T00:55:11.268Z,17.36
2022-09-14T00:56:11.396Z,17.36
2022-09-14T00:57:11.533Z,17.35
2022-09-14T00:58:13.207Z,17.35
2022-09-14T00:59:12.008Z,17.33
2022-09-14T01:00:12.007Z,17.32
2022-09-14T01:01:12.330Z,17.33
2022-09-14T01:02:12.457Z,17.30
2022-09-14T01:03:12.446Z,17.28
2022-09-14T01:04:12.619Z,17.30
2022-09-14T01:05:12.748Z,17.28
2022-09-14T01:06:12.884Z,17.28
2022-09-14T01:07:12.974Z,17.30
2022-09-14T01:08:13.161Z,17.30
2022-09-14T01:09:13.320Z,17.30
2022-09-14T01:10:13.346Z,17.28
2022-09-14T01:11:13.507Z,17.28
2022-09-14T01:12:13.656Z,17.27
2022-09-14T01:13:13.785Z,17.27
2022-09-14T01:14:13.917Z,17.25
2022-09-14T01:15:14.055Z,17.24
2022-09-14T01:16:14.207Z,17.24
2022-09-14T01:17:14.325Z,17.24
2022-09-14T01:18:14.424Z,17.21
2022-09-14T01:19:14.576Z,17.22
2022-09-14T01:20:14.717Z,17.21
2022-09-14T01:21:14.848Z,17.21
2022-09-14T01:22:14.965Z,17.21
2022-09-14T01:23:15.096Z,17.20
2022-09-14T01:24:15.237Z,17.20
2022-09-14T01:25:15.397Z,17.18
2022-09-14T01:26:15.517Z,17.17
2022-09-14T01:27:15.645Z,17.18
2022-09-14T01:28:15.766Z,17.20
2022-09-14T01:29:17.142Z,17.18
2022-09-14T01:30:16.004Z,17.18
2022-09-14T01:31:16.179Z,17.18
2022-09-14T01:32:16.306Z,17.20
2022-09-14T01:33:16.439Z,17.18
2022-09-14T01:34:16.584Z,17.17
2022-09-14T01:35:16.737Z,17.18
2022-09-14T01:36:16.845Z,17.17
2022-09-14T01:37:16.975Z,17.15
2022-09-14T01:38:17.107Z,17.14
2022-09-14T01:39:17.246Z,17.15
2022-09-14T01:40:17.439Z,17.14
2022-09-14T01:41:17.507Z,17.14
2022-09-14T01:42:17.639Z,17.14
2022-09-14T01:43:17.775Z,17.14
2022-09-14T01:44:17.922Z,17.14
2022-09-14T01:45:18.067Z,17.15
2022-09-14T01:46:18.145Z,17.14
2022-09-14T01:47:18.276Z,17.14
2022-09-14T01:48:18.394Z,17.14
2022-09-14T01:49:18.534Z,17.14
2022-09-14T01:50:18.624Z,17.14
2022-09-14T01:51:18.776Z,17.14
2022-09-14T01:52:19.040Z,17.14
2022-09-14T01:53:19.002Z,17.14
2022-09-14T01:54:19.238Z,17.12
2022-09-14T01:55:19.276Z,17.12
2022-09-14T01:56:19.423Z,17.12
2022-09-14T01:57:19.555Z,17.10
2022-09-14T01:58:19.675Z,17.12
2022-09-14T01:59:19.833Z,17.10
2022-09-14T02:00:19.958Z,17.14
2022-09-14T02:01:20.175Z,17.12
2022-09-14T02:02:20.296Z,17.14
2022-09-14T02:03:20.384Z,17.12
2022-09-14T02:04:20.545Z,17.10
2022-09-14T02:05:20.706Z,17.10
2022-09-14T02:06:20.836Z,17.12
2022-09-14T02:07:20.952Z,17.10
2022-09-14T02:08:21.095Z,17.09
2022-09-14T02:09:21.233Z,17.09
2022-09-14T02:10:21.352Z,17.12
2022-09-14T02:11:21.481Z,17.10
2022-09-14T02:12:21.614Z,17.12
2022-09-14T02:13:21.747Z,17.12
2022-09-14T02:14:21.874Z,17.10
2022-09-14T02:15:22.005Z,17.10
2022-09-14T02:16:22.171Z,17.10
2022-09-14T02:17:22.267Z,17.09
2022-09-14T02:18:22.392Z,17.09
2022-09-14T02:19:23.984Z,17.07
2022-09-14T02:20:22.674Z,17.07
2022-09-14T02:21:22.745Z,17.07
2022-09-14T02:22:22.872Z,17.06
2022-09-14T02:23:24.026Z,17.06
2022-09-14T02:24:23.141Z,17.06
2022-09-14T02:25:23.286Z,17.06
2022-09-14T02:26:23.427Z,17.05
2022-09-14T02:27:23.506Z,17.06
2022-09-14T02:28:23.645Z,17.05
2022-09-14T02:29:23.775Z,17.05
2022-09-14T02:30:23.912Z,17.03
2022-09-14T02:31:24.102Z,17.05
2022-09-14T02:32:24.190Z,17.03
2022-09-14T02:33:24.296Z,17.03
2022-09-14T02:34:24.428Z,17.05
2022-09-14T02:35:24.545Z,17.03
2022-09-14T02:36:24.683Z,17.02
2022-09-14T02:37:24.803Z,17.05
2022-09-14T02:38:24.935Z,17.03
2022-09-14T02:39:25.075Z,17.03
2022-09-14T02:40:25.280Z,17.03
2022-09-14T02:41:25.362Z,17.03
2022-09-14T02:42:25.503Z,17.00
2022-09-14T02:43:25.600Z,17.00
2022-09-14T02:44:25.726Z,17.02
2022-09-14T02:45:25.847Z,16.99
2022-09-14T02:46:26.015Z,16.99
2022-09-14T02:47:26.104Z,16.99
2022-09-14T02:48:26.234Z,16.99
2022-09-14T02:49:26.362Z,16.99
2022-09-14T02:50:26.496Z,16.98
2022-09-14T02:51:26.625Z,16.96
2022-09-14T02:52:26.762Z,16.98
2022-09-14T02:53:26.891Z,16.96
2022-09-14T02:54:27.036Z,16.98
2022-09-14T02:55:27.124Z,16.96
2022-09-14T02:56:27.252Z,16.95
2022-09-14T02:57:27.375Z,16.96
2022-09-14T02:58:27.517Z,16.95
2022-09-14T02:59:27.653Z,16.96
2022-09-14T03:00:27.843Z,16.92
2022-09-14T03:01:27.924Z,16.95
2022-09-14T03:02:28.115Z,16.95
2022-09-14T03:03:31.201Z,16.91
2022-09-14T03:04:29.292Z,16.92
2022-09-14T03:05:28.405Z,16.92
2022-09-14T03:06:28.533Z,16.91
2022-09-14T03:07:28.654Z,16.91
2022-09-14T03:08:28.808Z,16.91
2022-09-14T03:09:28.892Z,16.91
2022-09-14T03:10:29.025Z,16.91
2022-09-14T03:11:29.145Z,16.90
2022-09-14T03:12:29.286Z,16.90
2022-09-14T03:13:29.422Z,16.90
2022-09-14T03:14:29.541Z,16.90
2022-09-14T03:15:29.685Z,16.88
2022-09-14T03:16:29.872Z,16.88
2022-09-14T03:17:29.942Z,16.90
2022-09-14T03:18:30.073Z,16.87
2022-09-14T03:19:30.181Z,16.87
2022-09-14T03:20:30.335Z,16.87
2022-09-14T03:21:30.443Z,16.87
2022-09-14T03:22:30.562Z,16.85
2022-09-14T03:23:30.682Z,16.87
2022-09-14T03:24:30.815Z,16.87
2022-09-14T03:25:30.955Z,16.87
2022-09-14T03:26:31.083Z,16.87
2022-09-14T03:27:31.213Z,16.85
2022-09-14T03:28:31.364Z,16.84
2022-09-14T03:29:31.516Z,16.84
2022-09-14T03:30:31.642Z,16.84
2022-09-14T03:31:31.797Z,16.85
2022-09-14T03:32:31.896Z,16.82
2022-09-14T03:33:32.024Z,16.81
2022-09-14T03:34:32.163Z,16.81
2022-09-14T03:35:32.311Z,16.81
2022-09-14T03:36:32.456Z,16.81
2022-09-14T03:37:32.592Z,16.80
2022-09-14T03:38:32.751Z,16.78
2022-09-14T03:39:32.902Z,16.81
2022-09-14T03:40:33.052Z,16.81
2022-09-14T03:41:33.098Z,16.81
2022-09-14T03:42:33.233Z,16.81
2022-09-14T03:43:33.353Z,16.80
2022-09-14T03:44:33.502Z,16.80
2022-09-14T03:45:33.649Z,16.78
2022-09-14T03:46:33.814Z,16.78
2022-09-14T03:47:33.933Z,16.80
2022-09-14T03:48:34.064Z,16.78
2022-09-14T03:49:34.200Z,16.80
2022-09-14T03:50:35.074Z,16.80
2022-09-14T03:51:34.435Z,16.78
2022-09-14T03:52:34.566Z,16.78
2022-09-14T03:53:34.685Z,16.73
2022-09-14T03:54:34.815Z,16.73
2022-09-14T03:55:34.966Z,16.72
2022-09-14T03:56:35.066Z,16.70
2022-09-14T03:57:35.173Z,16.70
2022-09-14T03:58:35.314Z,16.69
2022-09-14T03:59:35.435Z,16.69
2022-09-14T04:00:35.573Z,16.66
2022-09-14T04:01:35.828Z,16.66
2022-09-14T04:02:35.955Z,16.66
2022-09-14T04:03:35.983Z,16.65
2022-09-14T04:04:36.116Z,16.66
2022-09-14T04:05:36.237Z,16.63
2022-09-14T04:06:36.386Z,16.63
2022-09-14T04:07:36.475Z,16.62
2022-09-14T04:08:36.596Z,16.63
2022-09-14T04:09:36.703Z,16.65
2022-09-14T04:10:36.836Z,16.63
2022-09-14T04:11:36.973Z,16.63
2022-09-14T04:12:37.111Z,16.60
2022-09-14T04:13:37.232Z,16.59
2022-09-14T04:14:37.365Z,16.60
2022-09-14T04:15:37.495Z,16.59
2022-09-14T04:16:37.660Z,16.60
2022-09-14T04:17:37.779Z,16.60
2022-09-14T04:18:37.916Z,16.57
2022-09-14T04:19:38.038Z,16.62
2022-09-14T04:20:38.164Z,16.62
2022-09-14T04:21:38.292Z,16.60
2022-09-14T04:22:39.145Z,16.59
2022-09-14T04:23:56.979Z,16.55
2022-09-14T04:24:39.693Z,16.52
2022-09-14T04:25:38.833Z,16.52
2022-09-14T04:26:38.967Z,16.50
2022-09-14T04:27:39.066Z,16.47
2022-09-14T04:28:39.193Z,16.44
2022-09-14T04:29:39.329Z,16.44
2022-09-14T04:30:39.474Z,16.41
2022-09-14T04:31:39.615Z,16.37
2022-09-14T04:32:39.754Z,16.34
2022-09-14T04:33:39.905Z,16.33
2022-09-14T04:34:40.044Z,16.33
2022-09-14T04:35:40.127Z,16.29
2022-09-14T04:36:40.284Z,16.27
2022-09-14T04:37:40.420Z,16.26
2022-09-14T04:38:40.556Z,16.26
2022-09-14T04:39:40.715Z,16.22
2022-09-14T04:40:40.842Z,16.14
2022-09-14T04:41:40.984Z,16.16
2022-09-14T04:42:41.125Z,16.14
2022-09-14T04:43:41.254Z,16.11
2022-09-14T04:44:41.392Z,16.06
2022-09-14T04:45:41.513Z,16.06
2022-09-14T04:46:46.080Z,16.04
2022-09-14T04:47:42.772Z,16.01
2022-09-14T04:48:41.894Z,15.99
2022-09-14T04:49:42.035Z,15.96
2022-09-14T04:50:42.166Z,15.96
2022-09-14T04:51:42.301Z,15.92
2022-09-14T04:52:42.441Z,15.95
2022-09-14T04:53:42.603Z,15.92
2022-09-14T04:54:42.746Z,15.91
2022-09-14T04:55:42.873Z,15.89
2022-09-14T04:56:43.017Z,15.88
2022-09-14T04:57:43.176Z,15.88
2022-09-14T04:58:43.321Z,15.91
2022-09-14T04:59:43.417Z,15.89
2022-09-14T05:00:43.560Z,15.86
2022-09-14T05:01:43.810Z,15.81
2022-09-14T05:02:43.908Z,15.80
2022-09-14T05:03:43.974Z,15.80
2022-09-14T05:04:44.131Z,15.78
2022-09-14T05:05:44.962Z,15.80
2022-09-14T05:06:44.356Z,15.76
2022-09-14T05:07:44.470Z,15.73
2022-09-14T05:08:44.615Z,15.74
2022-09-14T05:09:44.744Z,15.73
2022-09-14T05:10:44.883Z,15.74
2022-09-14T05:11:45.003Z,15.73
2022-09-14T05:12:45.152Z,15.71
2022-09-14T05:13:49.756Z,15.70
2022-09-14T05:14:46.391Z,15.70
2022-09-14T05:15:45.557Z,15.66
2022-09-14T05:16:45.652Z,15.66
2022-09-14T05:17:45.757Z,15.64
2022-09-14T05:18:45.885Z,15.62
2022-09-14T05:19:45.985Z,15.60
2022-09-14T05:20:46.084Z,15.59
2022-09-14T05:21:47.172Z,15.59
2022-09-14T05:22:46.354Z,15.58
2022-09-14T05:23:46.454Z,15.58
2022-09-14T05:24:46.551Z,15.58
2022-09-14T05:25:46.693Z,15.58
2022-09-14T05:26:58.200Z,15.60
2022-09-14T05:27:47.936Z,15.56
2022-09-14T05:28:47.782Z,15.55
2022-09-14T05:29:47.950Z,15.52
2022-09-14T05:30:47.393Z,15.51
2022-09-14T05:31:47.449Z,15.49
2022-09-14T05:32:48.286Z,15.48
2022-09-14T05:33:47.804Z,15.41
2022-09-14T05:34:47.786Z,15.40
2022-09-14T05:35:47.917Z,15.38
2022-09-14T05:36:48.126Z,15.38
2022-09-14T05:37:48.131Z,15.34
2022-09-14T05:38:48.291Z,15.35
2022-09-14T05:39:48.411Z,15.38
2022-09-14T05:40:48.547Z,15.40
2022-09-14T05:41:48.659Z,15.43
2022-09-14T05:42:48.766Z,15.41
2022-09-14T05:43:48.917Z,15.41
2022-09-14T05:44:49.039Z,15.40
2022-09-14T05:45:49.190Z,15.40
2022-09-14T05:46:49.389Z,15.38
2022-09-14T05:47:49.442Z,15.35
2022-09-14T05:48:49.611Z,15.33
2022-09-14T05:49:49.676Z,15.27
2022-09-14T05:50:49.819Z,15.28
2022-09-14T05:51:49.950Z,15.28
2022-09-14T05:52:50.106Z,15.27
2022-09-14T05:53:51.072Z,15.28
2022-09-14T05:54:50.340Z,15.27
2022-09-14T05:55:50.498Z,15.27
2022-09-14T05:56:50.645Z,15.27
2022-09-14T05:57:50.747Z,15.23
2022-09-14T05:58:50.913Z,15.23
2022-09-14T05:59:51.019Z,15.23
2022-09-14T06:00:51.118Z,15.23
2022-09-14T06:01:51.344Z,15.23
2022-09-14T06:02:51.379Z,15.28
2022-09-14T06:03:51.614Z,15.31
2022-09-14T06:04:51.631Z,15.30
2022-09-14T06:05:51.786Z,15.30
2022-09-14T06:07:08.006Z,15.27
2022-09-14T06:07:52.988Z,15.25
2022-09-14T06:08:52.147Z,15.23
2022-09-14T06:09:52.227Z,15.25
2022-09-14T06:10:52.402Z,15.27
2022-09-14T06:11:52.468Z,15.27
2022-09-14T06:12:55.485Z,15.28
2022-09-14T06:13:52.774Z,15.30
2022-09-14T06:14:52.849Z,15.30
2022-09-14T06:15:53.045Z,15.27
2022-09-14T06:16:53.128Z,15.22
2022-09-14T06:17:53.248Z,15.22
2022-09-14T06:18:53.349Z,15.22
2022-09-14T06:19:53.461Z,15.19
2022-09-14T06:20:53.619Z,15.12
2022-09-14T06:21:53.800Z,15.09
2022-09-14T06:22:53.842Z,15.05
2022-09-14T06:23:53.989Z,15.03
2022-09-14T06:24:54.079Z,14.97
2022-09-14T06:25:54.239Z,14.97
2022-09-14T06:26:54.358Z,14.91
2022-09-14T06:27:54.497Z,14.90
2022-09-14T06:28:54.644Z,14.90
2022-09-14T06:29:54.765Z,14.90
2022-09-14T06:30:54.874Z,14.93
2022-09-14T06:31:54.987Z,14.95
2022-09-14T06:32:55.101Z,14.97
2022-09-14T06:33:55.245Z,14.93
2022-09-14T06:34:55.380Z,14.87
2022-09-14T06:35:55.566Z,14.87
2022-09-14T06:36:55.638Z,14.91
2022-09-14T06:37:55.821Z,14.95
2022-09-14T06:38:55.890Z,15.00
2022-09-14T06:39:56.183Z,15.03
2022-09-14T06:40:56.203Z,15.03
2022-09-14T06:41:56.302Z,15.03
2022-09-14T06:42:56.447Z,15.03
2022-09-14T06:43:56.541Z,14.98
2022-09-14T06:44:56.634Z,14.94
2022-09-14T06:45:56.795Z,14.93
2022-09-14T06:46:56.916Z,14.93
2022-09-14T06:47:57.008Z,14.93
2022-09-14T06:48:57.116Z,14.94
2022-09-14T06:49:57.255Z,14.97
2022-09-14T06:50:57.368Z,15.00
2022-09-14T06:51:57.528Z,15.01
2022-09-14T06:52:57.628Z,15.01
2022-09-14T06:53:57.744Z,14.97
2022-09-14T06:54:57.854Z,14.97
2022-09-14T06:55:58.035Z,14.95
2022-09-14T06:56:58.136Z,14.97
2022-09-14T06:57:58.255Z,14.91
2022-09-14T06:58:58.378Z,14.90
2022-09-14T06:59:58.552Z,14.91
2022-09-14T07:00:58.637Z,14.91
2022-09-14T07:01:58.770Z,14.87
2022-09-14T07:02:58.880Z,14.87
2022-09-14T07:03:58.996Z,14.87
2022-09-14T07:04:59.126Z,14.87
2022-09-14T07:05:59.217Z,14.85
2022-09-14T07:06:59.336Z,14.80
2022-09-14T07:08:00.110Z,14.78
2022-09-14T07:08:59.558Z,14.74
2022-09-14T07:09:59.717Z,14.78
2022-09-14T07:10:59.801Z,14.75
2022-09-14T07:11:59.974Z,14.71
2022-09-14T07:13:00.060Z,14.69
2022-09-14T07:14:00.166Z,14.71
2022-09-14T07:15:00.324Z,14.74
2022-09-14T07:16:00.484Z,14.74
2022-09-14T07:17:00.614Z,14.79
2022-09-14T07:18:00.714Z,14.83
2022-09-14T07:19:01.046Z,14.90
2022-09-14T07:20:00.966Z,14.91
2022-09-14T07:21:05.263Z,14.93
2022-09-14T07:22:01.263Z,14.93
2022-09-14T07:23:01.365Z,14.94
2022-09-14T07:24:01.506Z,14.91
2022-09-14T07:25:01.653Z,14.90
2022-09-14T07:26:01.805Z,14.91
2022-09-14T07:27:01.927Z,14.97
2022-09-14T07:28:02.035Z,15.01
2022-09-14T07:29:02.134Z,15.04
2022-09-14T07:30:02.278Z,15.09
2022-09-14T07:31:02.459Z,15.07
2022-09-14T07:32:02.523Z,15.12
2022-09-14T07:33:02.635Z,15.15
2022-09-14T07:34:02.754Z,15.11
2022-09-14T07:35:02.908Z,15.04
2022-09-14T07:36:03.025Z,14.97
2022-09-14T07:37:03.215Z,14.91
2022-09-14T07:38:03.267Z,14.93
2022-09-14T07:39:03.529Z,14.93
2022-09-14T07:40:03.557Z,14.95
2022-09-14T07:41:03.635Z,15.00
2022-09-14T07:42:03.795Z,15.01
2022-09-14T07:43:03.905Z,14.95
2022-09-14T07:44:04.005Z,14.94
2022-09-14T07:45:04.160Z,14.94
2022-09-14T07:46:04.443Z,14.97
2022-09-14T07:47:04.448Z,15.00
2022-09-14T07:48:04.538Z,15.07
2022-09-14T07:49:04.636Z,15.13
2022-09-14T07:50:04.796Z,15.19
2022-09-14T07:51:04.894Z,15.22
2022-09-14T07:52:05.038Z,15.25
2022-09-14T07:53:05.168Z,15.27
2022-09-14T07:54:05.327Z,15.35
2022-09-14T07:55:05.414Z,15.33
2022-09-14T07:56:05.562Z,15.27
2022-09-14T07:57:05.666Z,15.34
2022-09-14T07:58:05.817Z,15.37
2022-09-14T08:00:07.045Z,15.48
2022-09-14T08:01:06.236Z,15.53
2022-09-14T08:02:06.398Z,15.56
2022-09-14T08:03:06.446Z,15.62
2022-09-14T08:04:06.605Z,15.67
2022-09-14T08:05:06.715Z,15.68
2022-09-14T08:06:06.874Z,15.73
2022-09-14T08:07:06.953Z,15.71
2022-09-14T08:08:07.093Z,15.77
2022-09-14T08:09:07.227Z,15.73
2022-09-14T08:10:07.372Z,15.77
2022-09-14T08:11:07.514Z,15.86
2022-09-14T08:12:07.657Z,15.92
2022-09-14T08:13:07.756Z,15.93
2022-09-14T08:14:07.904Z,15.92
2022-09-14T08:15:07.994Z,15.91
2022-09-14T08:16:08.178Z,15.89
2022-09-14T08:17:08.244Z,15.91
2022-09-14T08:18:08.388Z,15.89
2022-09-14T08:19:08.522Z,15.85
2022-09-14T08:20:08.667Z,15.81
2022-09-14T08:21:08.804Z,15.80
2022-09-14T08:22:08.945Z,15.80
2022-09-14T08:23:09.085Z,15.74
2022-09-14T08:24:09.223Z,15.74
2022-09-14T08:25:09.365Z,15.77
2022-09-14T08:26:09.524Z,15.85
2022-09-14T08:27:09.612Z,15.85
2022-09-14T08:28:09.756Z,15.86
2022-09-14T08:29:09.885Z,15.91
2022-09-14T08:30:09.975Z,15.93
2022-09-14T08:31:10.124Z,15.95
2022-09-14T08:32:10.302Z,15.92
2022-09-14T08:33:10.353Z,15.85
2022-09-14T08:34:10.502Z,15.86
2022-09-14T08:35:10.625Z,15.91
2022-09-14T08:36:10.792Z,15.86
2022-09-14T08:37:10.866Z,15.88
2022-09-14T08:38:11.006Z,15.88
2022-09-14T08:39:11.682Z,15.85
2022-09-14T08:40:11.302Z,15.85
2022-09-14T08:41:11.374Z,15.89
2022-09-14T08:42:11.514Z,15.85
2022-09-14T08:43:11.641Z,15.81
2022-09-14T08:44:11.785Z,15.84
2022-09-14T08:45:11.935Z,15.84
2022-09-14T08:46:12.143Z,15.86
2022-09-14T08:47:12.148Z,15.86
2022-09-14T08:48:12.282Z,15.81
2022-09-14T08:49:12.428Z,15.78
2022-09-14T08:50:12.577Z,15.77
2022-09-14T08:51:12.674Z,15.73
2022-09-14T08:52:12.814Z,15.68
2022-09-14T08:53:12.945Z,15.67
2022-09-14T08:54:13.087Z,15.67
2022-09-14T08:55:13.234Z,15.66
2022-09-14T08:56:13.354Z,15.68
2022-09-14T08:57:13.456Z,15.67
2022-09-14T08:58:13.613Z,15.68
2022-09-14T08:59:13.703Z,15.71
2022-09-14T09:00:13.844Z,15.76
2022-09-14T09:01:14.100Z,15.67
2022-09-14T09:02:14.104Z,15.68
2022-09-14T09:03:14.244Z,15.77
2022-09-14T09:04:14.431Z,15.84
2022-09-14T09:05:14.503Z,15.84
2022-09-14T09:06:16.216Z,15.77
2022-09-14T09:07:14.825Z,15.78
2022-09-14T09:08:14.917Z,15.80
2022-09-14T09:09:15.048Z,15.76
2022-09-14T09:10:15.183Z,15.76
2022-09-14T09:11:15.338Z,15.80
2022-09-14T09:12:15.493Z,15.84
2022-09-14T09:13:15.574Z,15.73
2022-09-14T09:14:18.437Z,15.67
2022-09-14T09:15:15.853Z,15.68
2022-09-14T09:16:16.032Z,15.71
2022-09-14T09:17:16.153Z,15.70
2022-09-14T09:18:16.253Z,15.71
2022-09-14T09:19:16.394Z,15.70
2022-09-14T09:20:16.581Z,15.74
2022-09-14T09:21:16.654Z,15.77
2022-09-14T09:22:16.814Z,15.80
2022-09-14T09:23:16.896Z,15.80
2022-09-14T09:24:17.794Z,15.81
2022-09-14T09:25:17.190Z,15.77
2022-09-14T09:26:17.315Z,15.81
2022-09-14T09:27:17.535Z,15.71
2022-09-14T09:28:17.582Z,15.70
2022-09-14T09:29:17.713Z,15.70
2022-09-14T09:30:17.869Z,15.70
2022-09-14T09:31:18.039Z,15.71
2022-09-14T09:32:18.116Z,15.77
2022-09-14T09:33:18.195Z,15.84
2022-09-14T09:34:18.343Z,15.85
2022-09-14T09:35:18.475Z,15.91
2022-09-14T09:36:18.696Z,15.92
2022-09-14T09:37:18.764Z,15.91
2022-09-14T09:38:18.864Z,15.88
2022-09-14T09:39:18.963Z,15.91
2022-09-14T09:40:19.156Z,15.91
2022-09-14T09:41:19.247Z,15.91
2022-09-14T09:42:19.443Z,15.88
2022-09-14T09:43:38.595Z,15.96
2022-09-14T09:44:20.614Z,15.96
2022-09-14T09:45:19.747Z,15.98
2022-09-14T09:46:19.907Z,16.01
2022-09-14T09:47:20.020Z,15.92
2022-09-14T09:48:20.116Z,15.92
2022-09-14T09:49:20.225Z,15.86
2022-09-14T09:50:20.364Z,15.91
2022-09-14T09:51:23.958Z,15.86
2022-09-14T09:52:20.651Z,15.91
2022-09-14T09:53:20.802Z,15.86
2022-09-14T09:54:20.845Z,15.92
2022-09-14T09:55:20.933Z,15.98
2022-09-14T09:56:21.085Z,16.03
2022-09-14T09:57:21.234Z,15.98
2022-09-14T09:58:21.766Z,15.93
2022-09-14T09:59:21.453Z,15.93
2022-09-14T10:00:21.605Z,15.93
2022-09-14T10:01:21.755Z,16.01
2022-09-14T10:02:21.870Z,16.01
2022-09-14T10:03:21.952Z,16.07
2022-09-14T10:04:22.124Z,16.08
2022-09-14T10:05:22.200Z,16.10
2022-09-14T10:06:22.345Z,16.13
2022-09-14T10:07:22.483Z,16.11
2022-09-14T10:08:22.634Z,16.14
2022-09-14T10:09:22.792Z,16.18
2022-09-14T10:10:22.880Z,16.17
2022-09-14T10:11:23.035Z,16.25
2022-09-14T10:12:23.143Z,16.29
2022-09-14T10:13:23.242Z,16.29
2022-09-14T10:14:23.403Z,16.30
2022-09-14T10:15:23.523Z,16.27
2022-09-14T10:16:23.668Z,16.29
2022-09-14T10:17:23.753Z,16.22
2022-09-14T10:18:23.901Z,16.10
2022-09-14T10:19:24.044Z,16.07
2022-09-14T10:20:24.162Z,16.06
2022-09-14T10:21:24.294Z,16.06
2022-09-14T10:22:26.688Z,16.07
2022-09-14T10:23:24.590Z,16.08
2022-09-14T10:24:24.700Z,16.11
2022-09-14T10:25:24.842Z,16.10
2022-09-14T10:26:24.990Z,16.08
2022-09-14T10:27:25.104Z,16.07
2022-09-14T10:28:25.244Z,16.11
2022-09-14T10:29:25.364Z,16.13
2022-09-14T10:30:25.465Z,16.08
2022-09-14T10:31:25.670Z,16.07
2022-09-14T10:32:25.760Z,16.08
2022-09-14T10:33:25.903Z,15.99
2022-09-14T10:34:26.012Z,15.98
2022-09-14T10:35:26.133Z,15.89
2022-09-14T10:36:26.265Z,15.77
2022-09-14T10:37:26.353Z,15.76
2022-09-14T10:38:26.593Z,15.78
2022-09-14T10:39:26.578Z,15.78
2022-09-14T10:40:26.767Z,15.80
2022-09-14T10:41:26.939Z,15.77
2022-09-14T10:42:26.962Z,15.88
2022-09-14T10:43:27.104Z,15.93
2022-09-14T10:44:27.253Z,15.98
2022-09-14T10:45:27.404Z,16.03
2022-09-14T10:46:27.540Z,16.06
2022-09-14T10:47:27.633Z,16.03
2022-09-14T10:48:27.732Z,15.99
2022-09-14T10:49:28.055Z,15.98
2022-09-14T10:50:27.987Z,15.89
2022-09-14T10:51:28.129Z,15.81
2022-09-14T10:52:28.245Z,15.74
2022-09-14T10:53:28.323Z,15.70
2022-09-14T10:54:28.466Z,15.62
2022-09-14T10:55:28.557Z,15.55
2022-09-14T10:56:28.654Z,15.60
2022-09-14T10:57:28.818Z,15.60
2022-09-14T10:58:28.903Z,15.58
2022-09-14T10:59:29.061Z,15.60
2022-09-14T11:00:29.162Z,15.58
2022-09-14T11:01:29.366Z,15.58
2022-09-14T11:02:29.523Z,15.60
2022-09-14T11:03:29.534Z,15.66
2022-09-14T11:04:29.682Z,15.64
2022-09-14T11:05:29.836Z,15.60
2022-09-14T11:06:29.917Z,15.62
2022-09-14T11:07:30.066Z,15.67
2022-09-14T11:08:30.164Z,15.68
2022-09-14T11:09:30.318Z,15.66
2022-09-14T11:10:30.423Z,15.60
2022-09-14T11:11:30.534Z,15.59
2022-09-14T11:12:30.644Z,15.60
2022-09-14T11:13:30.750Z,15.66
2022-09-14T11:14:30.894Z,15.64
2022-09-14T11:15:31.109Z,15.64
2022-09-14T11:16:31.242Z,15.59
2022-09-14T11:17:31.983Z,15.58
2022-09-14T11:18:31.432Z,15.58
2022-09-14T11:19:31.545Z,15.56
2022-09-14T11:20:31.687Z,15.56
2022-09-14T11:21:31.832Z,15.52
2022-09-14T11:22:31.972Z,15.49
2022-09-14T11:23:32.134Z,15.51
2022-09-14T11:24:32.233Z,15.51
2022-09-14T11:25:32.436Z,15.49
2022-09-14T11:26:32.500Z,15.52
2022-09-14T11:27:39.720Z,15.56
2022-09-14T11:28:32.772Z,15.55
2022-09-14T11:29:32.926Z,15.58
2022-09-14T11:30:33.027Z,15.62
2022-09-14T11:31:33.214Z,15.60
2022-09-14T11:32:33.280Z,15.59
2022-09-14T11:33:33.446Z,15.64
2022-09-14T11:34:33.526Z,15.67
2022-09-14T11:35:33.661Z,15.60
2022-09-14T11:36:33.794Z,15.60
2022-09-14T11:37:33.934Z,15.56
2022-09-14T11:38:34.095Z,15.53
2022-09-14T11:39:34.196Z,15.48
2022-09-14T11:40:34.416Z,15.43
2022-09-14T11:41:34.485Z,15.40
2022-09-14T11:42:34.594Z,15.37
2022-09-14T11:43:34.745Z,15.40
2022-09-14T11:44:34.838Z,15.43
2022-09-14T11:45:34.987Z,15.40
2022-09-14T11:46:35.143Z,15.34
2022-09-14T11:47:35.235Z,15.27
2022-09-14T11:48:43.574Z,15.34
2022-09-14T11:49:36.503Z,15.41
2022-09-14T11:50:35.630Z,15.40
2022-09-14T11:51:35.776Z,15.28
2022-09-14T11:52:35.964Z,15.23
2022-09-14T11:53:36.042Z,15.28
2022-09-14T11:54:36.623Z,15.27
2022-09-14T11:55:36.356Z,15.37
2022-09-14T11:56:36.430Z,15.40
2022-09-14T11:57:36.576Z,15.46
2022-09-14T11:58:36.714Z,15.55
2022-09-14T11:59:36.816Z,15.64
2022-09-14T12:00:36.953Z,15.62
2022-09-14T12:01:37.103Z,15.67
2022-09-14T12:02:37.187Z,15.74
2022-09-14T12:03:37.367Z,15.84
2022-09-14T12:04:37.419Z,15.81
2022-09-14T12:05:37.627Z,15.71
2022-09-14T12:06:37.683Z,15.55
2022-09-14T12:07:37.853Z,15.60
2022-09-14T12:08:38.005Z,15.59
2022-09-14T12:09:38.085Z,15.67
2022-09-14T12:10:41.719Z,15.62
2022-09-14T12:11:39.341Z,15.68
2022-09-14T12:12:39.213Z,15.77
2022-09-14T12:13:38.634Z,15.84
2022-09-14T12:14:38.726Z,15.89
2022-09-14T12:15:38.923Z,15.95
2022-09-14T12:16:38.948Z,15.98
2022-09-14T12:17:40.587Z,15.95
2022-09-14T12:18:39.230Z,15.99
2022-09-14T12:19:39.324Z,16.07
2022-09-14T12:20:39.461Z,16.11
2022-09-14T12:21:39.573Z,16.14
2022-09-14T12:22:39.666Z,16.22
2022-09-14T12:23:39.782Z,16.25
2022-09-14T12:24:39.880Z,16.30
2022-09-14T12:25:40.014Z,16.33
2022-09-14T12:26:40.123Z,16.36
2022-09-14T12:27:40.221Z,16.32
2022-09-14T12:28:40.331Z,16.34
2022-09-14T12:29:40.451Z,16.40
2022-09-14T12:30:41.182Z,16.40
2022-09-14T12:31:40.753Z,16.40
2022-09-14T12:32:40.773Z,16.42
2022-09-14T12:33:40.957Z,16.40
2022-09-14T12:34:41.003Z,16.41
2022-09-14T12:35:41.161Z,16.40
2022-09-14T12:36:41.982Z,16.41
2022-09-14T12:37:41.384Z,16.34
2022-09-14T12:38:41.504Z,16.32
2022-09-14T12:39:41.623Z,16.34
2022-09-14T12:40:41.751Z,16.40
2022-09-14T12:41:41.877Z,16.36
2022-09-14T12:42:41.972Z,16.34
2022-09-14T12:43:42.074Z,16.34
2022-09-14T12:44:42.201Z,16.32
2022-09-14T12:45:42.323Z,16.29
2022-09-14T12:46:42.504Z,16.36
2022-09-14T12:47:42.537Z,16.42
2022-09-14T12:48:42.645Z,16.47
2022-09-14T12:49:42.774Z,16.48
2022-09-14T12:50:42.874Z,16.51
2022-09-14T12:51:43.014Z,16.54
2022-09-14T12:52:44.553Z,16.57
2022-09-14T12:53:43.236Z,16.63
2022-09-14T12:54:46.005Z,16.50